createdAt,value
2022-08-30T00:00:47.398Z,96131.50
2022-08-30T00:02:50.498Z,96125.72
2022-08-30T00:04:55.178Z,96126.50
2022-08-30T00:06:57.948Z,96141.25
2022-08-30T00:09:00.821Z,96141.69
2022-08-30T00:11:05.496Z,95974.50
2022-08-30T00:13:09.222Z,96146.59
2022-08-30T00:15:14.777Z,96135.44
2022-08-30T00:17:19.302Z,96136.53
2022-08-30T00:19:22.073Z,96126.66
2022-08-30T00:21:27.091Z,96125.88
2022-08-30T00:23:29.880Z,96135.03
2022-08-30T00:25:32.768Z,96130.06
2022-08-30T00:27:35.601Z,96127.63
2022-08-30T00:29:38.496Z,96132.78
2022-08-30T00:31:41.320Z,96110.72
2022-08-30T00:33:44.121Z,96136.34
2022-08-30T00:35:46.872Z,96137.47
2022-08-30T00:37:51.095Z,96139.41
2022-08-30T00:39:53.916Z,96141.31
2022-08-30T00:41:56.711Z,96145.66
2022-08-30T00:44:00.888Z,96150.19
2022-08-30T00:46:07.653Z,96142.63
2022-08-30T00:48:10.711Z,96146.97
2022-08-30T00:50:17.316Z,96147.22
2022-08-30T00:52:23.363Z,96142.34
2022-08-30T00:54:28.495Z,96142.38
2022-08-30T00:56:32.377Z,96144.69
2022-08-30T00:58:38.208Z,96146.00
2022-08-30T01:00:41.358Z,96148.56
2022-08-30T01:02:44.393Z,96149.13
2022-08-30T01:04:51.805Z,96142.31
2022-08-30T01:06:55.144Z,96155.88
2022-08-30T01:08:58.802Z,96144.41
2022-08-30T01:11:04.632Z,96137.94
2022-08-30T01:13:07.997Z,96149.75
2022-08-30T01:15:14.389Z,96149.63
2022-08-30T01:17:18.150Z,96145.63
2022-08-30T01:19:35.492Z,96086.94
2022-08-30T01:21:46.983Z,96142.88
2022-08-30T01:23:54.738Z,96145.63
2022-08-30T01:25:57.608Z,96143.97
2022-08-30T01:28:05.093Z,96150.50
2022-08-30T01:30:08.973Z,96150.25
2022-08-30T01:32:20.971Z,96145.63
2022-08-30T01:34:24.406Z,96151.84
2022-08-30T01:36:27.352Z,96154.31
2022-08-30T01:38:34.678Z,96119.53
2022-08-30T01:40:38.892Z,96154.53
2022-08-30T01:42:42.137Z,96155.00
2022-08-30T01:44:45.016Z,96144.72
2022-08-30T01:46:48.932Z,96141.84
2022-08-30T01:48:54.304Z,96129.63
2022-08-30T01:50:57.230Z,96138.53
2022-08-30T01:53:00.155Z,96141.56
2022-08-30T01:55:03.540Z,96145.28
2022-08-30T01:57:10.924Z,96115.44
2022-08-30T01:59:14.314Z,96137.16
2022-08-30T02:01:19.941Z,96142.53
2022-08-30T02:03:23.031Z,96146.66
2022-08-30T02:05:26.765Z,96140.00
2022-08-30T02:07:29.714Z,96146.88
2022-08-30T02:09:32.578Z,96154.16
2022-08-30T02:11:35.383Z,96150.25
2022-08-30T02:13:40.856Z,96145.13
2022-08-30T02:15:43.715Z,96146.94
2022-08-30T02:17:46.434Z,96135.53
2022-08-30T02:19:49.464Z,96147.00
2022-08-30T02:21:52.309Z,96143.84
2022-08-30T02:23:55.421Z,96143.69
2022-08-30T02:25:58.401Z,96144.38
2022-08-30T02:28:01.252Z,96134.59
2022-08-30T02:30:07.087Z,96140.69
2022-08-30T02:32:10.049Z,96130.53
2022-08-30T02:34:12.923Z,96139.88
2022-08-30T02:36:15.739Z,96138.16
2022-08-30T02:38:20.183Z,96143.22
2022-08-30T02:40:23.294Z,96135.41
2022-08-30T02:42:26.058Z,96130.94
2022-08-30T02:44:28.871Z,96125.19
2022-08-30T02:46:33.411Z,96065.88
2022-08-30T02:48:37.558Z,96122.75
2022-08-30T02:50:41.428Z,96115.50
2022-08-30T02:52:45.290Z,96115.34
2022-08-30T02:54:51.511Z,96105.09
2022-08-30T02:56:54.235Z,96101.72
2022-08-30T02:58:56.979Z,96103.66
2022-08-30T03:00:59.810Z,96105.44
2022-08-30T03:03:04.391Z,96099.97
2022-08-30T03:05:07.814Z,96102.19
2022-08-30T03:07:10.654Z,96095.91
2022-08-30T03:09:13.440Z,96102.53
2022-08-30T03:11:16.385Z,96104.63
2022-08-30T03:13:19.218Z,96091.13
2022-08-30T03:15:25.280Z,96099.19
2022-08-30T03:17:28.085Z,96097.56
2022-08-30T03:19:32.288Z,96100.94
2022-08-30T03:21:37.091Z,96100.59
2022-08-30T03:23:40.808Z,96107.25
2022-08-30T03:25:43.901Z,96109.03
2022-08-30T03:27:46.613Z,96107.28
2022-08-30T03:29:49.368Z,96116.59
2022-08-30T03:31:53.746Z,96122.31
2022-08-30T03:33:56.841Z,96109.75
2022-08-30T03:36:01.055Z,96093.00
2022-08-30T03:38:03.939Z,96105.41
2022-08-30T03:40:09.087Z,96109.50
2022-08-30T03:42:13.550Z,96111.59
2022-08-30T03:44:16.335Z,96102.81
2022-08-30T03:46:19.071Z,96104.84
2022-08-30T03:48:27.565Z,96099.59
2022-08-30T03:50:31.406Z,96093.53
2022-08-30T03:52:35.633Z,96096.91
2022-08-30T03:54:40.142Z,96070.31
2022-08-30T03:56:43.210Z,95892.13
2022-08-30T03:58:46.400Z,96095.06
2022-08-30T04:00:49.225Z,96100.31
2022-08-30T04:02:52.083Z,96105.22
2022-08-30T04:04:55.081Z,96098.56
2022-08-30T04:06:58.051Z,95990.78
2022-08-30T04:09:02.147Z,96097.44
2022-08-30T04:11:05.249Z,96106.81
2022-08-30T04:13:08.122Z,96103.84
2022-08-30T04:15:12.625Z,96105.06
2022-08-30T04:17:15.392Z,96107.31
2022-08-30T04:19:18.731Z,96112.53
2022-08-30T04:21:21.522Z,96113.63
2022-08-30T04:23:24.475Z,96112.34
2022-08-30T04:25:28.643Z,96119.88
2022-08-30T04:27:31.369Z,96076.66
2022-08-30T04:29:35.026Z,96119.31
2022-08-30T04:31:37.895Z,96112.66
2022-08-30T04:33:41.786Z,96113.53
2022-08-30T04:35:46.098Z,96119.28
2022-08-30T04:37:48.782Z,96117.50
2022-08-30T04:39:51.683Z,95868.97
2022-08-30T04:41:57.486Z,95866.34
2022-08-30T04:44:03.506Z,96116.69
2022-08-30T04:46:08.421Z,96054.97
2022-08-30T04:48:11.399Z,96117.94
2022-08-30T04:50:17.413Z,96119.09
2022-08-30T04:52:20.312Z,96122.56
2022-08-30T04:54:23.139Z,96131.44
2022-08-30T04:56:26.390Z,95926.09
2022-08-30T04:58:30.540Z,96135.53
2022-08-30T05:00:33.641Z,96149.28
2022-08-30T05:02:36.604Z,96143.28
2022-08-30T05:05:00.187Z,95973.44
2022-08-30T05:07:02.932Z,96139.81
2022-08-30T05:09:06.023Z,96161.31
2022-08-30T05:11:09.802Z,96138.94
2022-08-30T05:13:12.801Z,96151.94
2022-08-30T05:15:17.108Z,96153.78
2022-08-30T05:17:20.199Z,96148.59
2022-08-30T05:19:23.656Z,96156.72
2022-08-30T05:21:28.602Z,96164.03
2022-08-30T05:23:31.414Z,96154.50
2022-08-30T05:25:37.850Z,96151.78
2022-08-30T05:27:40.608Z,96152.88
2022-08-30T05:29:43.955Z,96145.84
2022-08-30T05:31:48.114Z,96132.63
2022-08-30T05:33:52.032Z,96147.75
2022-08-30T05:35:54.899Z,96143.69
2022-08-30T05:37:57.684Z,96141.28
2022-08-30T05:40:01.335Z,96141.78
2022-08-30T05:42:04.894Z,96140.41
2022-08-30T05:44:10.081Z,96148.47
2022-08-30T05:46:19.406Z,96151.13
2022-08-30T05:48:23.805Z,96093.03
2022-08-30T05:50:26.558Z,96165.09
2022-08-30T05:52:29.312Z,96153.06
2022-08-30T05:54:32.113Z,96153.56
2022-08-30T05:56:37.403Z,96055.44
2022-08-30T05:58:41.040Z,96102.88
2022-08-30T06:00:43.798Z,96158.00
2022-08-30T06:02:46.902Z,96159.28
2022-08-30T06:04:51.118Z,96161.69
2022-08-30T06:06:55.325Z,95922.06
2022-08-30T06:08:58.489Z,96154.06
2022-08-30T06:11:01.277Z,96042.66
2022-08-30T06:13:04.181Z,96152.88
2022-08-30T06:15:08.341Z,96156.53
2022-08-30T06:17:11.644Z,96150.72
2022-08-30T06:19:16.267Z,96153.38
2022-08-30T06:21:22.102Z,96160.50
2022-08-30T06:23:24.898Z,96160.06
2022-08-30T06:25:27.645Z,96162.13
2022-08-30T06:27:45.065Z,96086.91
2022-08-30T06:29:47.864Z,96156.53
2022-08-30T06:31:51.383Z,96145.97
2022-08-30T06:33:54.716Z,96148.72
2022-08-30T06:36:05.721Z,96191.31
2022-08-30T06:38:10.278Z,96152.06
2022-08-30T06:40:16.876Z,96157.53
2022-08-30T06:42:19.911Z,96160.69
2022-08-30T06:44:23.001Z,96161.88
2022-08-30T06:46:28.101Z,96164.09
2022-08-30T06:48:30.934Z,96161.25
2022-08-30T06:50:33.761Z,96160.94
2022-08-30T06:52:37.265Z,96148.69
2022-08-30T06:54:42.570Z,96155.03
2022-08-30T06:56:58.182Z,96146.72
2022-08-30T06:59:01.982Z,96181.25
2022-08-30T07:01:04.877Z,96165.63
2022-08-30T07:03:07.896Z,96166.50
2022-08-30T07:05:16.736Z,96180.75
2022-08-30T07:07:21.731Z,96128.28
2022-08-30T07:09:25.113Z,96069.56
2022-08-30T07:11:33.115Z,96028.03
2022-08-30T07:13:35.994Z,96173.97
2022-08-30T07:15:43.574Z,96158.75
2022-08-30T07:18:04.147Z,96170.84
2022-08-30T07:20:07.972Z,96172.00
2022-08-30T07:22:10.731Z,96113.69
2022-08-30T07:24:14.396Z,96162.63
2022-08-30T07:26:19.558Z,96155.00
2022-08-30T07:28:23.795Z,96159.03
2022-08-30T07:30:26.674Z,96159.69
2022-08-30T07:32:29.674Z,96170.78
2022-08-30T07:34:32.780Z,96161.50
2022-08-30T07:36:36.628Z,96186.31
2022-08-30T07:38:39.724Z,96178.16
2022-08-30T07:40:43.040Z,96168.19
2022-08-30T07:42:46.039Z,96176.91
2022-08-30T07:44:52.679Z,96182.88
2022-08-30T07:46:58.850Z,96183.38
2022-08-30T07:49:04.151Z,96178.84
2022-08-30T07:51:11.685Z,96171.13
2022-08-30T07:53:14.887Z,96173.88
2022-08-30T07:55:17.969Z,96172.25
2022-08-30T07:57:20.741Z,96164.53
2022-08-30T07:59:23.687Z,96163.72
2022-08-30T08:01:27.895Z,96162.41
2022-08-30T08:03:30.890Z,96160.50
2022-08-30T08:05:37.128Z,96165.66
2022-08-30T08:07:39.898Z,96166.44
2022-08-30T08:09:43.029Z,96162.06
2022-08-30T08:11:45.801Z,96056.09
2022-08-30T08:13:54.331Z,96149.78
2022-08-30T08:15:57.402Z,96167.00
2022-08-30T08:18:01.715Z,96161.00
2022-08-30T08:20:05.499Z,96164.09
2022-08-30T08:22:23.452Z,96161.78
2022-08-30T08:24:26.628Z,96163.63
2022-08-30T08:26:29.430Z,96131.84
2022-08-30T08:28:32.513Z,95954.69
2022-08-30T08:30:38.116Z,95909.88
2022-08-30T08:32:41.710Z,96069.16
2022-08-30T08:34:48.254Z,96159.53
2022-08-30T08:36:51.513Z,96161.41
2022-08-30T08:38:54.623Z,96156.75
2022-08-30T08:41:06.237Z,96000.53
2022-08-30T08:43:12.996Z,96107.03
2022-08-30T08:45:20.891Z,96158.22
2022-08-30T08:47:30.929Z,96151.47
2022-08-30T08:49:37.207Z,96045.09
2022-08-30T08:52:10.648Z,96154.59
2022-08-30T08:54:17.584Z,96158.97
2022-08-30T08:56:22.723Z,96148.94
2022-08-30T08:58:28.553Z,96148.47
2022-08-30T09:00:33.352Z,96138.16
2022-08-30T09:02:42.892Z,95966.28
2022-08-30T09:04:46.334Z,96150.41
2022-08-30T09:06:58.357Z,96139.06
2022-08-30T09:09:01.177Z,96148.47
2022-08-30T09:11:11.111Z,96143.94
2022-08-30T09:13:14.429Z,96041.66
2022-08-30T09:15:19.973Z,96136.41
2022-08-30T09:17:24.568Z,96135.22
2022-08-30T09:22:00.180Z,96137.94
2022-08-30T09:24:08.655Z,96137.72
2022-08-30T09:26:14.727Z,95668.81
2022-08-30T09:28:23.630Z,96139.25
2022-08-30T09:30:29.611Z,96133.84
2022-08-30T09:32:38.980Z,96129.13
2022-08-30T09:34:44.568Z,96125.47
2022-08-30T09:36:49.753Z,96123.88
2022-08-30T09:39:03.025Z,96121.72
2022-08-30T09:41:37.795Z,96113.22
2022-08-30T09:43:40.589Z,96108.41
2022-08-30T09:45:46.593Z,95954.44
2022-08-30T09:47:49.505Z,96115.03
2022-08-30T09:50:05.518Z,96105.72
2022-08-30T09:52:18.015Z,96109.06
2022-08-30T09:54:27.537Z,96112.34
2022-08-30T09:56:40.736Z,96100.78
2022-08-30T09:59:00.563Z,95967.22
2022-08-30T10:01:12.066Z,96105.34
2022-08-30T10:03:40.276Z,96100.38
2022-08-30T10:05:53.579Z,96102.50
2022-08-30T10:08:07.994Z,96107.94
2022-08-30T10:10:18.822Z,96110.22
2022-08-30T10:12:42.204Z,96101.81
2022-08-30T10:14:56.530Z,95994.00
2022-08-30T10:17:02.981Z,96098.75
2022-08-30T10:19:19.419Z,96093.13
2022-08-30T10:21:29.314Z,96072.78
2022-08-30T10:23:37.218Z,96087.78
2022-08-30T10:25:48.789Z,96078.44
2022-08-30T10:27:59.070Z,95928.13
2022-08-30T10:30:05.905Z,96032.09
2022-08-30T10:32:16.397Z,96071.97
2022-08-30T10:34:26.237Z,96074.44
2022-08-30T10:36:34.217Z,96073.13
2022-08-30T10:38:39.272Z,96026.81
2022-08-30T10:41:05.575Z,96061.38
2022-08-30T10:43:20.369Z,96063.75
2022-08-30T10:45:28.185Z,96059.66
2022-08-30T10:47:38.391Z,96049.31
2022-08-30T10:49:45.618Z,96056.47
2022-08-30T10:51:54.759Z,96061.78
2022-08-30T10:54:09.275Z,95910.84
2022-08-30T10:56:20.501Z,96065.19
2022-08-30T10:58:23.615Z,96059.66
2022-08-30T11:00:30.902Z,95898.31
2022-08-30T11:03:02.106Z,96058.13
2022-08-30T11:05:42.262Z,96049.41
2022-08-30T11:07:57.376Z,96059.41
2022-08-30T11:10:23.610Z,96037.81
2022-08-30T11:12:34.726Z,96030.22
2022-08-30T11:14:41.173Z,96059.31
2022-08-30T11:16:49.672Z,96056.72
2022-08-30T11:18:56.318Z,96058.38
2022-08-30T11:21:26.010Z,96062.44
2022-08-30T11:23:33.306Z,96063.38
2022-08-30T11:25:56.866Z,96062.19
2022-08-30T11:28:02.118Z,96049.66
2022-08-30T11:30:52.668Z,96058.47
2022-08-30T11:33:00.666Z,96058.88
2022-08-30T11:35:06.289Z,96061.66
2022-08-30T11:37:35.943Z,96055.09
2022-08-30T11:39:57.376Z,96049.00
2022-08-30T11:42:14.008Z,96057.31
2022-08-30T11:44:33.821Z,96055.81
2022-08-30T11:46:39.685Z,96061.75
2022-08-30T11:48:47.045Z,96063.06
2022-08-30T11:51:05.469Z,96056.63
2022-08-30T11:53:17.198Z,96053.97
2022-08-30T11:55:45.211Z,96058.72
2022-08-30T11:57:53.900Z,96053.56
2022-08-30T12:00:07.507Z,96060.72
2022-08-30T12:02:46.415Z,96048.00
2022-08-30T12:04:49.470Z,96051.16
2022-08-30T12:06:56.893Z,96045.19
2022-08-30T12:09:02.144Z,95886.75
2022-08-30T12:11:08.999Z,96041.94
2022-08-30T12:14:00.791Z,96041.50
2022-08-30T12:16:06.530Z,96040.34
2022-08-30T12:18:28.350Z,96044.34
2022-08-30T12:20:42.162Z,96045.19
2022-08-30T12:22:45.526Z,96049.19
2022-08-30T12:24:53.731Z,96051.63
2022-08-30T12:26:58.220Z,96035.63
2022-08-30T12:29:14.479Z,96029.53
2022-08-30T12:31:22.943Z,95949.91
2022-08-30T12:33:39.507Z,96025.53
2022-08-30T12:35:45.366Z,96023.47
2022-08-30T12:37:59.096Z,96018.09
2022-08-30T12:40:06.157Z,96016.84
2022-08-30T12:42:17.697Z,96001.88
2022-08-30T12:44:24.306Z,96010.81
2022-08-30T12:46:30.220Z,95985.44
2022-08-30T12:48:36.372Z,96005.69
2022-08-30T12:50:51.613Z,96007.34
2022-08-30T12:53:00.874Z,96007.13
2022-08-30T12:55:17.593Z,95920.66
2022-08-30T12:57:38.535Z,96003.81
2022-08-30T12:59:56.843Z,95948.91
2022-08-30T13:02:20.326Z,95999.88
2022-08-30T13:04:28.188Z,96006.22
2022-08-30T13:06:40.327Z,95994.28
2022-08-30T13:08:53.173Z,95997.81
2022-08-30T13:11:01.531Z,95998.22
2022-08-30T13:13:08.742Z,95992.63
2022-08-30T13:15:16.477Z,95987.06
2022-08-30T13:17:25.623Z,95980.34
2022-08-30T13:19:34.134Z,95978.72
2022-08-30T13:21:36.938Z,95942.53
2022-08-30T13:23:39.746Z,95971.56
2022-08-30T13:25:42.542Z,95973.13
2022-08-30T13:27:45.351Z,95966.34
2022-08-30T13:29:48.193Z,95969.47
2022-08-30T13:31:50.994Z,95961.84
2022-08-30T13:33:55.802Z,95904.63
2022-08-30T13:35:59.402Z,95959.13
2022-08-30T13:38:04.107Z,95959.22
2022-08-30T13:40:50.174Z,95953.03
2022-08-30T13:42:53.120Z,95953.16
2022-08-30T13:44:55.899Z,95950.06
2022-08-30T13:47:32.324Z,95950.09
2022-08-30T13:52:16.355Z,95947.72
2022-08-30T13:54:13.932Z,95942.50
2022-08-30T13:56:16.977Z,95935.34
2022-08-30T13:58:20.144Z,95934.19
2022-08-30T14:00:23.508Z,95933.78
2022-08-30T14:02:26.789Z,95893.25
2022-08-30T14:04:31.282Z,95928.19
2022-08-30T14:06:34.868Z,95922.63
2022-08-30T14:08:49.797Z,95893.22
2022-08-30T14:10:54.867Z,95924.78
2022-08-30T14:13:08.068Z,95867.69
2022-08-30T14:15:11.597Z,95920.66
2022-08-30T14:17:14.568Z,95927.44
2022-08-30T14:19:17.789Z,95910.56
2022-08-30T14:21:24.698Z,95905.53
2022-08-30T14:23:28.614Z,95906.22
2022-08-30T14:25:31.443Z,95903.63
2022-08-30T14:27:34.367Z,95835.09
2022-08-30T14:29:37.102Z,95918.28
2022-08-30T14:31:42.140Z,95917.06
2022-08-30T14:33:44.977Z,94957.00
2022-08-30T14:35:47.786Z,95871.31
2022-08-30T14:37:53.349Z,95891.94
2022-08-30T14:39:56.264Z,95879.59
2022-08-30T14:42:04.361Z,95910.66
2022-08-30T14:44:11.021Z,95863.38
2022-08-30T14:46:14.132Z,95871.78
2022-08-30T14:48:17.077Z,95905.50
2022-08-30T14:50:20.221Z,95904.31
2022-08-30T14:52:23.056Z,95909.94
2022-08-30T14:54:30.269Z,95901.16
2022-08-30T14:56:33.043Z,95851.03
2022-08-30T14:58:35.807Z,95904.69
2022-08-30T15:00:39.454Z,95744.16
2022-08-30T15:02:42.370Z,95895.13
2022-08-30T15:04:45.698Z,95763.97
2022-08-30T15:06:52.920Z,95866.53
2022-08-30T15:08:56.771Z,95872.81
2022-08-30T15:11:01.415Z,95902.28
2022-08-30T15:13:06.305Z,95904.25
2022-08-30T15:15:11.365Z,95895.53
2022-08-30T15:17:14.302Z,95903.31
2022-08-30T15:19:18.263Z,95902.22
2022-08-30T15:21:27.047Z,95710.94
2022-08-30T15:23:29.850Z,95856.13
2022-08-30T15:25:33.063Z,95892.69
2022-08-30T15:27:37.636Z,95841.47
2022-08-30T15:29:40.449Z,95885.03
2022-08-30T15:31:44.561Z,95881.91
2022-08-30T15:33:47.425Z,95883.72
2022-08-30T15:35:52.035Z,95881.22
2022-08-30T15:37:55.040Z,95882.44
2022-08-30T15:39:58.272Z,95892.44
2022-08-30T15:42:02.034Z,95892.41
2022-08-30T15:44:06.592Z,95837.06
2022-08-30T15:46:22.969Z,95884.28
2022-08-30T15:48:25.889Z,95883.44
2022-08-30T15:50:29.339Z,95875.06
2022-08-30T15:52:33.464Z,95863.41
2022-08-30T15:54:36.318Z,95879.53
2022-08-30T15:56:39.128Z,95876.75
2022-08-30T15:58:42.594Z,95873.22
2022-08-30T16:00:46.919Z,95871.16
2022-08-30T16:02:50.680Z,95873.25
2022-08-30T16:04:54.801Z,95867.53
2022-08-30T16:06:57.609Z,95876.03
2022-08-30T16:09:00.426Z,95860.91
2022-08-30T16:11:05.786Z,95863.13
2022-08-30T16:13:08.642Z,95865.66
2022-08-30T16:15:13.004Z,95860.19
2022-08-30T16:17:17.235Z,95864.19
2022-08-30T16:19:21.281Z,95888.72
2022-08-30T16:21:27.059Z,95875.16
2022-08-30T16:23:33.456Z,95872.47
2022-08-30T16:25:40.666Z,95883.50
2022-08-30T16:27:44.149Z,95874.66
2022-08-30T16:29:46.918Z,95871.25
2022-08-30T16:31:50.042Z,95867.00
2022-08-30T16:33:54.469Z,95867.84
2022-08-30T16:35:57.877Z,95877.50
2022-08-30T16:38:00.755Z,95875.59
2022-08-30T16:40:04.454Z,95766.13
2022-08-30T16:42:08.432Z,95875.19
2022-08-30T16:44:11.482Z,95870.88
2022-08-30T16:46:17.254Z,95862.63
2022-08-30T16:48:20.115Z,95768.13
2022-08-30T16:50:24.281Z,95855.22
2022-08-30T16:52:27.214Z,95784.72
2022-08-30T16:54:31.905Z,95727.69
2022-08-30T16:56:36.730Z,95869.19
2022-08-30T16:58:39.857Z,95786.69
2022-08-30T17:00:47.490Z,95861.84
2022-08-30T17:02:54.385Z,95871.78
2022-08-30T17:04:57.270Z,95872.41
2022-08-30T17:07:02.567Z,95865.81
2022-08-30T17:09:06.069Z,95873.84
2022-08-30T17:11:10.078Z,95872.63
2022-08-30T17:13:12.989Z,95872.63
2022-08-30T17:15:16.681Z,95868.97
2022-08-30T17:17:22.130Z,95830.47
2022-08-30T17:19:26.731Z,95879.06
2022-08-30T17:21:31.288Z,95808.81
2022-08-30T17:23:36.123Z,95704.75
2022-08-30T17:25:41.611Z,95828.28
2022-08-30T17:27:44.632Z,95883.13
2022-08-30T17:29:47.491Z,95880.50
2022-08-30T17:31:51.486Z,95888.19
2022-08-30T17:33:57.991Z,95899.75
2022-08-30T17:36:04.553Z,95891.31
2022-08-30T17:38:07.792Z,95888.03
2022-08-30T17:40:15.602Z,95899.16
2022-08-30T17:42:18.485Z,95890.91
2022-08-30T17:44:25.892Z,95896.25
2022-08-30T17:46:29.318Z,95894.66
2022-08-30T17:48:33.277Z,95894.56
2022-08-30T17:50:36.357Z,95864.16
2022-08-30T17:52:39.114Z,95894.28
2022-08-30T17:54:42.616Z,95916.63
2022-08-30T17:56:46.720Z,95903.66
2022-08-30T17:58:51.084Z,95903.53
2022-08-30T18:01:04.352Z,95746.66
2022-08-30T18:03:14.380Z,95908.78
2022-08-30T18:05:18.202Z,95917.03
2022-08-30T18:07:27.798Z,95911.91
2022-08-30T18:09:34.034Z,95908.25
2022-08-30T18:11:39.447Z,95908.34
2022-08-30T18:13:43.680Z,95920.09
2022-08-30T18:15:46.557Z,95920.22
2022-08-30T18:17:53.577Z,95921.75
2022-08-30T18:19:56.526Z,95925.66
2022-08-30T18:22:02.699Z,95935.53
2022-08-30T18:24:07.300Z,95930.28
2022-08-30T18:26:13.198Z,95878.59
2022-08-30T18:28:16.027Z,95929.03
2022-08-30T18:30:21.096Z,95912.28
2022-08-30T18:32:32.727Z,95934.91
2022-08-30T18:34:40.323Z,95927.53
2022-08-30T18:36:45.593Z,95937.13
2022-08-30T18:38:49.681Z,95934.63
2022-08-30T18:40:53.145Z,95719.81
2022-08-30T18:42:56.046Z,95945.06
2022-08-30T18:44:59.970Z,95948.88
2022-08-30T18:49:42.154Z,95958.75
2022-08-30T18:51:44.952Z,95956.44
2022-08-30T18:53:50.131Z,95965.97
2022-08-30T18:55:53.882Z,95958.63
2022-08-30T18:57:57.576Z,95965.28
2022-08-30T19:00:00.297Z,95965.75
2022-08-30T19:02:03.630Z,95965.63
2022-08-30T19:04:08.051Z,95891.25
2022-08-30T19:06:13.500Z,95971.25
2022-08-30T19:08:16.457Z,95973.53
2022-08-30T19:10:25.209Z,95968.50
2022-08-30T19:12:28.950Z,95860.78
2022-08-30T19:14:31.787Z,95971.31
2022-08-30T19:16:34.751Z,95844.94
2022-08-30T19:18:39.696Z,95973.75
2022-08-30T19:20:44.736Z,95414.03
2022-08-30T19:23:08.927Z,95975.59
2022-08-30T19:25:15.469Z,95923.78
2022-08-30T19:27:21.695Z,95983.50
2022-08-30T19:29:41.084Z,95979.88
2022-08-30T19:31:44.751Z,95992.84
2022-08-30T19:33:48.609Z,95993.34
2022-08-30T19:35:53.657Z,95834.38
2022-08-30T19:37:56.609Z,95885.34
2022-08-30T19:40:00.742Z,95987.16
2022-08-30T19:42:04.142Z,95988.88
2022-08-30T19:44:08.191Z,95741.34
2022-08-30T19:46:15.369Z,95889.63
2022-08-30T19:48:22.228Z,95987.22
2022-08-30T19:50:25.432Z,95992.72
2022-08-30T19:52:31.194Z,95992.03
2022-08-30T19:54:34.761Z,95701.03
2022-08-30T19:56:37.644Z,95999.69
2022-08-30T19:58:41.401Z,95507.88
2022-08-30T20:00:54.131Z,95911.72
2022-08-30T20:03:01.528Z,96043.09
2022-08-30T20:05:05.695Z,96034.31
2022-08-30T20:07:09.113Z,96005.97
2022-08-30T20:09:14.222Z,96008.94
2022-08-30T20:11:19.222Z,96018.78
2022-08-30T20:13:23.701Z,95842.19
2022-08-30T20:15:27.050Z,95837.00
2022-08-30T20:17:47.571Z,95694.47
2022-08-30T20:19:52.948Z,95924.69
2022-08-30T20:21:55.748Z,96000.75
2022-08-30T20:24:10.830Z,95649.59
2022-08-30T20:24:29.506Z,95952.56
2022-08-30T20:26:16.095Z,96001.31
2022-08-30T20:28:20.562Z,95997.88
2022-08-30T20:30:23.607Z,95999.28
2022-08-30T20:32:26.698Z,95907.63
2022-08-30T20:34:29.681Z,96013.69
2022-08-30T20:36:33.600Z,96009.88
2022-08-30T20:38:36.759Z,95911.34
2022-08-30T20:40:40.782Z,96005.66
2022-08-30T20:42:46.375Z,96007.53
2022-08-30T20:44:49.304Z,95990.31
2022-08-30T20:46:52.207Z,95995.94
2022-08-30T20:48:55.006Z,95987.59
2022-08-30T20:50:57.829Z,95989.78
2022-08-30T20:53:00.655Z,95986.19
2022-08-30T20:55:04.563Z,95979.13
2022-08-30T20:57:07.856Z,95973.97
2022-08-30T20:59:12.075Z,95971.03
2022-08-30T21:01:15.860Z,95969.44
2022-08-30T21:03:26.130Z,95972.97
2022-08-30T21:05:30.774Z,95969.44
2022-08-30T21:07:33.592Z,95975.88
2022-08-30T21:09:37.860Z,95973.53
2022-08-30T21:11:43.539Z,95729.00
2022-08-30T21:13:48.376Z,95980.97
2022-08-30T21:15:54.602Z,95977.78
2022-08-30T21:17:57.767Z,95979.72
2022-08-30T21:20:00.662Z,95982.59
2022-08-30T21:22:03.747Z,95983.78
2022-08-30T21:24:09.909Z,95976.94
2022-08-30T21:26:12.743Z,95984.78
2022-08-30T21:28:15.820Z,95787.81
2022-08-30T21:30:20.530Z,95989.16
2022-08-30T21:32:24.939Z,95988.63
2022-08-30T21:34:27.866Z,95983.84
2022-08-30T21:36:51.455Z,95645.78
2022-08-30T21:39:00.472Z,95864.72
2022-08-30T21:41:03.770Z,95475.00
2022-08-30T21:43:07.526Z,95985.66
2022-08-30T21:45:12.007Z,95985.66
2022-08-30T21:47:14.852Z,95984.06
2022-08-30T21:49:27.627Z,95981.53
2022-08-30T21:51:34.119Z,95981.59
2022-08-30T21:53:37.759Z,95990.34
2022-08-30T21:55:40.828Z,95989.94
2022-08-30T21:57:46.631Z,95816.03
2022-08-30T21:59:49.490Z,95996.03
2022-08-30T22:01:52.470Z,95879.63
2022-08-30T22:03:57.682Z,96001.66
2022-08-30T22:06:01.970Z,95997.19
2022-08-30T22:08:05.028Z,95998.25
2022-08-30T22:10:11.079Z,95999.41
2022-08-30T22:12:14.094Z,95998.34
2022-08-30T22:14:17.516Z,95989.84
2022-08-30T22:16:21.003Z,95996.84
2022-08-30T22:18:23.946Z,95990.25
2022-08-30T22:20:27.548Z,95995.22
2022-08-30T22:22:35.008Z,95999.25
2022-08-30T22:24:39.508Z,95901.50
2022-08-30T22:26:43.387Z,95979.94
2022-08-30T22:28:46.707Z,95997.59
2022-08-30T22:30:49.819Z,96003.16
2022-08-30T22:32:52.851Z,96006.94
2022-08-30T22:34:57.495Z,96006.72
2022-08-30T22:37:00.761Z,96008.38
2022-08-30T22:39:07.119Z,96018.44
2022-08-30T22:41:12.422Z,95905.13
2022-08-30T22:43:15.812Z,96001.81
2022-08-30T22:45:19.289Z,96014.78
2022-08-30T22:47:22.274Z,96006.66
2022-08-30T22:49:26.297Z,95945.53
2022-08-30T22:51:29.206Z,96008.63
2022-08-30T22:53:32.483Z,96008.81
2022-08-30T22:55:40.372Z,96006.84
2022-08-30T22:57:43.359Z,96008.13
2022-08-30T22:59:46.926Z,96015.13
2022-08-30T23:01:50.020Z,96011.38
2022-08-30T23:03:53.904Z,96015.41
2022-08-30T23:05:56.935Z,96069.34
2022-08-30T23:08:00.063Z,96009.59
2022-08-30T23:10:03.665Z,96005.72
2022-08-30T23:12:08.390Z,96013.44
2022-08-30T23:14:11.367Z,96010.03
2022-08-30T23:16:16.253Z,95778.66
2022-08-30T23:18:19.989Z,96015.56
2022-08-30T23:20:24.432Z,96020.25
2022-08-30T23:22:27.678Z,96019.44
2022-08-30T23:24:49.156Z,96017.00
2022-08-30T23:27:09.607Z,95962.13
2022-08-30T23:29:31.569Z,96021.53
2022-08-30T23:31:52.044Z,96024.25
2022-08-30T23:34:17.518Z,96022.97
2022-08-30T23:36:38.094Z,96143.22
2022-08-30T23:38:58.526Z,96030.06
2022-08-30T23:41:18.986Z,96027.81
2022-08-30T23:43:39.209Z,96031.84
2022-08-30T23:46:01.406Z,96027.19
2022-08-30T23:48:21.771Z,95925.78
2022-08-30T23:50:42.078Z,96039.09
2022-08-30T23:53:02.150Z,96039.72
2022-08-30T23:55:23.650Z,96043.88
2022-08-30T23:57:44.827Z,96041.13
